Time;durP1;ratioP1;P1;durP2;ratioP2;P2;SDS_P1;SDS_P2;PMS_P1;PMS_P2;Temp;Humidity;BMP_temperature;BMP_pressure;BME280_temperature;BME280_humidity;BME280_pressure;Samples;Min_cycle;Max_cycle;Signal;HPM_P1;HPM_P2
2023/02/04 00:00:12;;;;;;;25.73;5.63;;;5.30;99.90;;;;;;5134512;27;20479;-64
2023/02/04 00:02:39;;;;;;;20.65;4.93;;;5.30;99.90;;;;;;5133712;27;20421;-64
2023/02/04 00:05:06;;;;;;;18.13;4.05;;;5.30;99.90;;;;;;5133925;27;20506;-65
2023/02/04 00:07:33;;;;;;;14.98;3.40;;;5.30;99.90;;;;;;5134469;27;20406;-62
2023/02/04 00:10:00;;;;;;;13.00;3.10;;;5.30;99.90;;;;;;5133621;27;20415;-63
2023/02/04 00:12:27;;;;;;;17.25;3.20;;;5.30;99.90;;;;;;5134165;27;20406;-63
2023/02/04 00:14:55;;;;;;;17.27;3.77;;;5.20;99.90;;;;;;5135840;28;20493;-63
2023/02/04 00:17:22;;;;;;;14.45;3.30;;;5.20;99.90;;;;;;5135466;28;20510;-64
2023/02/04 00:19:49;;;;;;;11.53;3.00;;;5.20;99.90;;;;;;5134299;28;20464;-64
2023/02/04 00:22:16;;;;;;;11.45;3.22;;;5.20;99.90;;;;;;5134432;28;20497;-64
2023/02/04 00:24:47;;;;;;;13.52;3.42;;;5.20;99.90;;;;;;5134308;28;20432;-64
2023/02/04 00:27:14;;;;;;;12.95;2.55;;;5.20;99.90;;;;;;5137131;27;20602;-62
2023/02/04 00:29:41;;;;;;;11.00;2.60;;;5.20;99.90;;;;;;5138175;27;20410;-64
2023/02/04 00:32:09;;;;;;;12.27;3.10;;;5.20;99.90;;;;;;5138719;27;20884;-64
2023/02/04 00:34:36;;;;;;;7.68;2.30;;;5.20;99.90;;;;;;5140076;27;20501;-64
2023/02/04 00:37:02;;;;;;;8.98;2.47;;;5.10;99.90;;;;;;5146471;27;20421;-64
2023/02/04 00:39:29;;;;;;;14.30;3.38;;;5.10;99.90;;;;;;5150702;27;20406;-63
2023/02/04 00:41:56;;;;;;;12.43;2.90;;;5.10;99.90;;;;;;5150951;27;20474;-63
2023/02/04 00:44:23;;;;;;;10.32;2.72;;;5.00;99.90;;;;;;5149834;27;20407;-64
2023/02/04 00:46:49;;;;;;;10.80;2.80;;;5.00;99.90;;;;;;5149672;27;20411;-64
2023/02/04 00:49:17;;;;;;;11.15;2.80;;;5.00;99.90;;;;;;5148385;27;20437;-64
2023/02/04 00:51:45;;;;;;;16.77;3.17;;;5.00;99.90;;;;;;5147650;27;20410;-63
2023/02/04 00:54:14;;;;;;;10.10;2.80;;;5.00;99.90;;;;;;5147702;27;20832;-63
2023/02/04 00:56:41;;;;;;;10.10;2.33;;;5.00;99.90;;;;;;5145176;27;20422;-64
2023/02/04 00:59:08;;;;;;;10.03;2.73;;;4.90;99.90;;;;;;5139026;27;20413;-63
2023/02/04 01:01:35;;;;;;;10.68;1.90;;;4.90;99.90;;;;;;5139187;27;20406;-63
2023/02/04 01:04:02;;;;;;;11.38;2.10;;;4.90;99.90;;;;;;5139724;27;20409;-64
2023/02/04 01:06:30;;;;;;;4.70;1.40;;;5.00;99.90;;;;;;5146771;27;20407;-63
2023/02/04 01:08:56;;;;;;;6.18;1.30;;;5.00;99.90;;;;;;5145477;27;20414;-63
2023/02/04 01:11:23;;;;;;;4.90;1.40;;;5.00;99.90;;;;;;5147026;27;20439;-63
2023/02/04 01:13:50;;;;;;;5.47;1.70;;;5.00;99.90;;;;;;5150775;27;20441;-64
2023/02/04 01:16:17;;;;;;;5.07;1.58;;;5.00;99.90;;;;;;5142728;27;20863;-64
2023/02/04 01:18:44;;;;;;;4.88;1.10;;;5.00;99.90;;;;;;5139175;27;20409;-64
2023/02/04 01:21:10;;;;;;;3.97;1.50;;;4.90;99.90;;;;;;5139092;27;20417;-63
2023/02/04 01:23:39;;;;;;;3.17;0.90;;;4.90;99.90;;;;;;5138780;27;20421;-64
2023/02/04 01:26:06;;;;;;;5.50;1.33;;;4.90;99.90;;;;;;5138614;27;20402;-63
2023/02/04 01:28:33;;;;;;;5.63;1.80;;;4.90;99.90;;;;;;5148366;27;20410;-64
2023/02/04 01:30:59;;;;;;;3.15;1.10;;;4.90;99.90;;;;;;5154917;27;20406;-64
2023/02/04 01:33:26;;;;;;;3.93;1.20;;;4.90;99.90;;;;;;5153416;27;20519;-64
2023/02/04 01:35:53;;;;;;;2.80;1.10;;;4.90;99.90;;;;;;5151246;27;20506;-64
2023/02/04 01:38:20;;;;;;;5.53;1.00;;;4.90;99.90;;;;;;5148624;27;20402;-64
2023/02/04 01:40:48;;;;;;;2.28;1.10;;;5.00;99.90;;;;;;5148704;27;20485;-63
2023/02/04 01:43:16;;;;;;;3.50;1.00;;;5.00;99.90;;;;;;5141807;27;20417;-64
2023/02/04 01:45:43;;;;;;;3.35;1.00;;;5.00;99.90;;;;;;5137647;27;20415;-64
2023/02/04 01:48:11;;;;;;;3.05;1.10;;;5.00;99.90;;;;;;5137532;27;20419;-64
2023/02/04 01:50:39;;;;;;;3.70;1.10;;;5.00;99.90;;;;;;5137219;27;20447;-64
2023/02/04 01:53:05;;;;;;;3.55;0.90;;;5.00;99.90;;;;;;5136671;27;20435;-64
2023/02/04 01:55:33;;;;;;;4.57;1.10;;;5.00;99.90;;;;;;5136260;27;20413;-63
2023/02/04 01:58:01;;;;;;;2.03;1.00;;;4.90;99.90;;;;;;5136041;27;20497;-63
2023/02/04 02:00:31;;;;;;;1.40;0.90;;;5.00;99.90;;;;;;5136305;27;20497;-64
2023/02/04 02:02:58;;;;;;;3.30;0.90;;;5.00;99.90;;;;;;5136651;27;20438;-64
2023/02/04 02:05:31;;;;;;;2.40;0.90;;;5.00;99.90;;;;;;5136895;27;20912;-63
2023/02/04 02:08:00;;;;;;;2.70;1.30;;;5.00;99.90;;;;;;5137323;27;20498;-65
2023/02/04 02:10:27;;;;;;;3.22;1.10;;;4.90;99.90;;;;;;5141535;27;20411;-63
2023/02/04 02:12:54;;;;;;;1.50;1.00;;;4.90;99.90;;;;;;5140392;27;20441;-63
2023/02/04 02:15:24;;;;;;;1.63;1.05;;;4.90;99.90;;;;;;5138684;27;20417;-64
2023/02/04 02:17:51;;;;;;;3.00;1.20;;;4.90;99.90;;;;;;5142123;27;20398;-62
2023/02/04 02:20:22;;;;;;;2.20;1.10;;;4.90;99.90;;;;;;5137975;27;20910;-64
2023/02/04 02:22:59;;;;;;;4.40;1.20;;;4.90;99.90;;;;;;5138246;27;20411;-64
2023/02/04 02:25:27;;;;;;;1.90;1.00;;;4.80;99.90;;;;;;5139736;27;20406;-64
2023/02/04 02:27:55;;;;;;;1.85;1.20;;;4.80;99.90;;;;;;5142083;27;20422;-64
2023/02/04 02:30:22;;;;;;;2.90;1.20;;;4.80;99.90;;;;;;5139696;27;20415;-64
2023/02/04 02:32:52;;;;;;;2.10;1.10;;;4.70;99.90;;;;;;5138474;27;20425;-63
2023/02/04 02:35:18;;;;;;;2.80;1.30;;;4.60;99.90;;;;;;5138491;27;20449;-63
2023/02/04 02:37:45;;;;;;;2.58;1.20;;;4.60;99.90;;;;;;5137128;27;20426;-63
2023/02/04 02:40:14;;;;;;;2.35;1.20;;;4.50;99.90;;;;;;5136925;27;20402;-64
2023/02/04 02:42:43;;;;;;;2.00;1.20;;;4.40;99.90;;;;;;5137262;27;20747;-63
2023/02/04 02:45:16;;;;;;;1.65;1.10;;;4.40;99.90;;;;;;5136378;27;20475;-64
2023/02/04 02:47:43;;;;;;;3.00;1.10;;;4.30;99.90;;;;;;5135877;27;20399;-64
2023/02/04 02:50:16;;;;;;;2.03;1.03;;;4.20;99.90;;;;;;5134364;27;20447;-63
2023/02/04 02:52:43;;;;;;;2.33;1.17;;;4.10;99.90;;;;;;5135444;27;20406;-64
2023/02/04 02:55:15;;;;;;;3.40;1.52;;;4.00;99.90;;;;;;5135807;27;20410;-64
2023/02/04 02:57:44;;;;;;;1.90;1.00;;;3.90;99.90;;;;;;5135339;27;20422;-64
2023/02/04 03:00:15;;;;;;;2.00;1.33;;;3.90;99.90;;;;;;5134829;27;20448;-63
2023/02/04 03:02:43;;;;;;;2.55;1.20;;;3.80;99.90;;;;;;5135347;27;20415;-63
2023/02/04 03:05:10;;;;;;;2.00;1.20;;;3.80;99.90;;;;;;5134839;27;20406;-64
2023/02/04 03:07:36;;;;;;;2.53;1.40;;;3.70;99.90;;;;;;5134294;27;20406;-64
2023/02/04 03:10:04;;;;;;;2.40;1.40;;;3.60;99.90;;;;;;5134461;27;20763;-64
2023/02/04 03:12:31;;;;;;;2.40;1.60;;;3.60;99.90;;;;;;5134336;27;20406;-64
2023/02/04 03:14:59;;;;;;;2.95;1.63;;;3.60;99.90;;;;;;5134232;27;20797;-63
2023/02/04 03:17:26;;;;;;;3.17;1.52;;;3.60;99.90;;;;;;5134207;27;20423;-64
2023/02/04 03:19:53;;;;;;;1.65;1.30;;;3.70;99.90;;;;;;5134019;27;20413;-64
2023/02/04 03:22:20;;;;;;;5.60;1.60;;;3.60;99.90;;;;;;5133751;27;20417;-63
2023/02/04 03:24:46;;;;;;;3.03;1.38;;;3.60;99.90;;;;;;5134197;27;20407;-64
2023/02/04 03:27:14;;;;;;;3.50;1.85;;;3.60;99.90;;;;;;5134241;27;20402;-64
2023/02/04 03:29:43;;;;;;;3.30;1.40;;;3.50;99.90;;;;;;5134683;27;20410;-64
2023/02/04 03:32:12;;;;;;;2.55;1.40;;;3.50;99.90;;;;;;5136233;27;20425;-64
2023/02/04 03:34:38;;;;;;;3.10;1.60;;;3.50;99.90;;;;;;5138215;27;20501;-64
2023/02/04 03:37:05;;;;;;;2.63;1.65;;;3.40;99.90;;;;;;5137717;27;20767;-64
2023/02/04 03:39:32;;;;;;;3.10;1.85;;;3.40;99.90;;;;;;5139505;27;20414;-63
2023/02/04 03:41:59;;;;;;;3.50;1.60;;;3.40;99.90;;;;;;5136743;27;20412;-64
2023/02/04 03:44:26;;;;;;;2.92;1.60;;;3.40;99.90;;;;;;5133544;27;20411;-64
2023/02/04 03:46:54;;;;;;;2.90;1.70;;;3.40;99.90;;;;;;5133809;27;20402;-64
2023/02/04 03:49:22;;;;;;;3.08;1.77;;;3.50;99.90;;;;;;5134230;27;20414;-64
2023/02/04 03:51:49;;;;;;;4.00;1.80;;;3.50;99.90;;;;;;5133952;27;20425;-64
2023/02/04 03:54:16;;;;;;;2.85;1.50;;;3.50;99.90;;;;;;5133654;27;20411;-64
2023/02/04 03:56:43;;;;;;;1.98;1.60;;;3.60;99.90;;;;;;5133504;27;20418;-64
2023/02/04 03:59:09;;;;;;;1.83;1.30;;;3.60;99.90;;;;;;5133378;27;20867;-64
2023/02/04 04:01:36;;;;;;;2.05;1.50;;;3.60;99.90;;;;;;5133075;27;20774;-64
2023/02/04 04:04:03;;;;;;;2.35;1.42;;;3.70;99.90;;;;;;5133672;27;20410;-64
2023/02/04 04:06:31;;;;;;;3.50;1.70;;;3.70;99.90;;;;;;5133787;27;20411;-64
2023/02/04 04:11:05;;;;;;;2.07;1.40;;;3.70;99.90;;;;;;5085304;27;1949563;-63
2023/02/04 04:13:31;;;;;;;2.60;1.60;;;3.70;99.90;;;;;;5118126;28;20406;-63
2023/02/04 04:15:58;;;;;;;1.70;1.60;;;3.70;99.90;;;;;;5110149;28;20789;-65
2023/02/04 04:18:25;;;;;;;2.28;1.50;;;3.70;99.90;;;;;;5110166;28;20418;-63
2023/02/04 04:20:52;;;;;;;2.08;1.50;;;3.60;99.90;;;;;;5110103;28;20412;-64
2023/02/04 04:23:19;;;;;;;3.25;1.67;;;3.50;99.90;;;;;;5110439;28;20496;-63
2023/02/04 04:25:45;;;;;;;3.17;1.35;;;3.40;99.90;;;;;;5100227;22;20435;-68
2023/02/04 04:28:13;;;;;;;2.15;1.55;;;3.30;99.90;;;;;;5069349;28;20447;-68
2023/02/04 04:30:40;;;;;;;2.20;1.50;;;3.30;99.90;;;;;;5069439;28;20421;-68
2023/02/04 04:33:07;;;;;;;2.50;1.50;;;3.20;99.90;;;;;;5069241;28;20412;-68
2023/02/04 04:35:34;;;;;;;2.72;1.70;;;3.10;99.90;;;;;;5084579;28;20414;-68
2023/02/04 04:38:01;;;;;;;3.28;1.40;;;3.00;99.90;;;;;;5089979;28;20476;-69
2023/02/04 04:40:27;;;;;;;2.08;1.40;;;3.00;99.90;;;;;;5089932;28;20414;-68
2023/02/04 04:42:54;;;;;;;2.53;1.35;;;2.90;99.90;;;;;;5089832;28;20423;-67
2023/02/04 04:45:22;;;;;;;2.65;1.52;;;2.90;99.90;;;;;;5089558;28;20794;-66
2023/02/04 04:47:49;;;;;;;4.00;1.60;;;2.80;99.90;;;;;;5090065;28;20415;-67
2023/02/04 04:50:16;;;;;;;2.00;1.45;;;2.80;99.90;;;;;;5089574;28;20514;-66
2023/02/04 04:52:43;;;;;;;2.90;1.60;;;2.70;99.90;;;;;;5089537;28;20448;-67
2023/02/04 04:55:10;;;;;;;3.15;1.70;;;2.70;99.90;;;;;;5089524;28;20426;-66
2023/02/04 04:57:37;;;;;;;2.88;1.70;;;2.60;99.90;;;;;;5089438;28;20433;-67
2023/02/04 05:00:04;;;;;;;2.70;1.70;;;2.60;99.90;;;;;;5089535;28;20407;-67
2023/02/04 05:02:33;;;;;;;2.30;1.60;;;2.50;99.90;;;;;;5088904;28;20415;-67
2023/02/04 05:05:00;;;;;;;3.47;1.70;;;2.50;99.90;;;;;;5076027;28;20468;-66
2023/02/04 05:07:27;;;;;;;2.92;1.60;;;2.50;99.90;;;;;;5068752;28;20896;-67
2023/02/04 05:09:54;;;;;;;3.95;1.80;;;2.50;99.90;;;;;;5068593;28;20947;-67
2023/02/04 05:12:20;;;;;;;2.30;1.80;;;2.40;99.90;;;;;;5069601;28;20413;-67
2023/02/04 05:14:47;;;;;;;3.20;2.30;;;2.40;99.90;;;;;;5068693;28;20499;-67
2023/02/04 05:17:14;;;;;;;2.30;1.40;;;2.40;99.90;;;;;;5068936;28;20847;-66
2023/02/04 05:19:42;;;;;;;2.30;1.60;;;2.40;99.90;;;;;;5070184;28;20412;-66
2023/02/04 05:22:09;;;;;;;3.30;1.80;;;2.40;99.90;;;;;;5075207;28;20445;-65
2023/02/04 05:24:36;;;;;;;2.60;1.73;;;2.40;99.90;;;;;;5073411;28;20933;-68
2023/02/04 05:27:03;;;;;;;2.50;1.70;;;2.30;99.90;;;;;;5073886;28;20434;-66
2023/02/04 05:29:30;;;;;;;5.03;2.10;;;2.30;99.90;;;;;;5073951;28;20428;-66
2023/02/04 05:31:56;;;;;;;2.15;1.83;;;2.30;99.90;;;;;;5074796;28;20439;-67
2023/02/04 05:34:23;;;;;;;3.28;1.73;;;2.20;99.90;;;;;;5074091;28;20431;-66
2023/02/04 05:36:51;;;;;;;3.20;1.80;;;2.20;99.90;;;;;;5073787;28;20439;-66
2023/02/04 05:39:18;;;;;;;4.80;1.80;;;2.20;99.90;;;;;;5073907;28;20790;-65
2023/02/04 05:41:45;;;;;;;2.85;1.70;;;2.20;99.90;;;;;;5073245;28;20439;-66
2023/02/04 05:44:12;;;;;;;3.63;1.80;;;2.10;99.90;;;;;;5074376;28;20442;-66
2023/02/04 05:46:39;;;;;;;4.07;2.17;;;2.10;99.90;;;;;;5073702;28;20431;-66
2023/02/04 05:49:07;;;;;;;5.45;2.30;;;2.10;99.90;;;;;;5073149;28;20428;-66
2023/02/04 05:51:34;;;;;;;4.05;2.28;;;2.10;99.90;;;;;;5072614;28;20427;-66
2023/02/04 05:54:02;;;;;;;2.80;2.00;;;2.10;99.90;;;;;;5073658;28;20454;-67
2023/02/04 05:56:29;;;;;;;3.67;1.90;;;2.00;99.90;;;;;;5073216;28;20438;-66
2023/02/04 05:58:55;;;;;;;4.32;2.17;;;2.00;99.90;;;;;;5073631;28;20485;-66
2023/02/04 06:01:22;;;;;;;2.50;2.30;;;2.00;99.90;;;;;;5071522;28;20431;-65
2023/02/04 06:03:49;;;;;;;3.15;2.20;;;1.90;99.90;;;;;;5072909;28;20435;-65
2023/02/04 06:06:16;;;;;;;3.40;2.10;;;1.90;99.90;;;;;;5073530;28;20899;-66
2023/02/04 06:08:42;;;;;;;3.97;2.65;;;1.90;99.90;;;;;;5072046;28;20515;-66
2023/02/04 06:11:11;;;;;;;5.18;2.40;;;1.80;99.90;;;;;;5073428;28;20427;-66
2023/02/04 06:13:37;;;;;;;4.05;2.38;;;1.80;99.90;;;;;;5073477;28;20770;-65
2023/02/04 06:16:04;;;;;;;3.17;2.10;;;1.80;99.90;;;;;;5073281;28;20431;-65
2023/02/04 06:18:31;;;;;;;3.03;2.03;;;1.70;99.90;;;;;;5073479;28;20757;-66
2023/02/04 06:20:58;;;;;;;5.07;2.20;;;1.70;99.90;;;;;;5074066;28;20427;-65
2023/02/04 06:23:25;;;;;;;2.85;2.10;;;1.70;99.90;;;;;;5073647;28;20438;-66
2023/02/04 06:25:52;;;;;;;2.60;2.10;;;1.60;99.90;;;;;;5077903;28;20872;-66
2023/02/04 06:28:20;;;;;;;4.00;2.30;;;1.60;99.90;;;;;;5076475;28;20403;-66
2023/02/04 06:30:48;;;;;;;3.10;2.20;;;1.60;99.90;;;;;;5053924;28;20426;-64
2023/02/04 06:33:15;;;;;;;6.70;2.40;;;1.60;99.90;;;;;;5062805;28;20427;-66
2023/02/04 06:35:41;;;;;;;2.70;2.30;;;1.50;99.90;;;;;;5072769;28;20445;-63
2023/02/04 06:38:08;;;;;;;3.50;2.70;;;1.50;99.90;;;;;;5069031;28;20439;-64
2023/02/04 06:40:35;;;;;;;4.57;2.53;;;1.40;99.90;;;;;;5073706;28;20411;-66
2023/02/04 06:43:02;;;;;;;4.60;2.50;;;1.40;99.90;;;;;;5074365;28;20490;-65
2023/02/04 06:45:30;;;;;;;5.10;2.60;;;1.40;99.90;;;;;;5072303;28;20428;-66
2023/02/04 06:47:57;;;;;;;4.80;3.27;;;1.40;99.90;;;;;;5068391;28;20476;-65
2023/02/04 06:50:23;;;;;;;3.65;2.70;;;1.40;99.90;;;;;;5070819;28;20428;-65
2023/02/04 06:52:50;;;;;;;5.00;2.85;;;1.40;99.90;;;;;;5072838;28;20439;-66
2023/02/04 06:55:17;;;;;;;3.00;2.70;;;1.40;99.90;;;;;;5070962;28;20945;-64
2023/02/04 06:57:44;;;;;;;3.70;2.50;;;1.40;99.90;;;;;;5072104;28;20922;-64
2023/02/04 07:00:12;;;;;;;4.32;2.50;;;1.40;99.90;;;;;;5074798;28;20886;-66
2023/02/04 07:02:41;;;;;;;4.13;2.72;;;1.30;99.90;;;;;;5073196;28;20407;-63
2023/02/04 07:05:08;;;;;;;4.35;2.60;;;1.40;99.90;;;;;;5070719;28;20436;-64
2023/02/04 07:07:35;;;;;;;5.32;2.72;;;1.40;99.90;;;;;;5072751;28;20418;-66
2023/02/04 07:10:02;;;;;;;4.30;2.53;;;1.40;99.90;;;;;;5071659;28;20806;-65
2023/02/04 07:12:29;;;;;;;3.85;2.58;;;1.30;99.90;;;;;;5066325;28;20409;-64
2023/02/04 07:14:55;;;;;;;3.00;2.45;;;1.40;99.90;;;;;;5054627;28;20427;-67
2023/02/04 07:17:23;;;;;;;3.85;2.38;;;1.40;99.90;;;;;;5065031;28;20427;-65
2023/02/04 07:19:51;;;;;;;3.97;2.75;;;1.40;99.90;;;;;;5073450;28;20888;-66
2023/02/04 07:22:18;;;;;;;4.53;2.88;;;1.50;99.90;;;;;;5065499;28;20436;-66
2023/02/04 07:24:45;;;;;;;4.55;3.25;;;1.60;99.90;;;;;;5065148;28;20432;-65
2023/02/04 07:27:12;;;;;;;4.90;2.90;;;1.60;99.90;;;;;;5074380;28;20843;-64
2023/02/04 07:29:39;;;;;;;5.35;3.05;;;1.70;99.90;;;;;;5064307;28;20497;-65
2023/02/04 07:32:06;;;;;;;4.20;2.60;;;1.80;99.90;;;;;;5073082;28;20416;-67
2023/02/04 07:34:33;;;;;;;3.40;3.00;;;1.90;99.90;;;;;;5069676;28;20445;-65
2023/02/04 07:37:01;;;;;;;4.05;2.90;;;2.00;99.90;;;;;;5060138;28;20427;-66
2023/02/04 07:39:28;;;;;;;3.90;2.70;;;2.10;99.90;;;;;;5069267;28;20420;-66
2023/02/04 07:41:55;;;;;;;4.22;2.70;;;2.20;99.90;;;;;;5074581;28;20911;-66
2023/02/04 07:44:22;;;;;;;3.87;2.60;;;2.30;99.90;;;;;;5076217;28;20407;-64
2023/02/04 07:46:49;;;;;;;3.17;2.70;;;2.60;99.90;;;;;;5073744;28;20458;-67
2023/02/04 07:49:15;;;;;;;3.35;2.55;;;2.80;99.90;;;;;;5074336;28;20800;-64
2023/02/04 07:51:42;;;;;;;3.60;2.90;;;2.90;99.90;;;;;;5073567;28;20427;-64
2023/02/04 07:54:10;;;;;;;3.03;2.45;;;2.90;99.90;;;;;;5073906;28;20421;-65
2023/02/04 07:56:37;;;;;;;3.40;2.47;;;2.80;99.90;;;;;;5073021;28;20434;-65
2023/02/04 07:59:04;;;;;;;3.08;2.38;;;2.80;99.90;;;;;;5073750;28;20411;-64
2023/02/04 08:01:31;;;;;;;3.00;2.40;;;2.70;99.90;;;;;;5072217;28;20433;-64
2023/02/04 08:03:58;;;;;;;3.85;2.67;;;2.70;99.90;;;;;;5073326;28;20422;-66
2023/02/04 08:06:25;;;;;;;4.10;2.70;;;2.70;99.90;;;;;;5072380;28;20414;-65
2023/02/04 08:08:52;;;;;;;4.50;2.38;;;2.70;99.90;;;;;;5073271;28;20422;-66
2023/02/04 08:11:20;;;;;;;3.38;2.72;;;2.70;99.90;;;;;;5069399;28;20434;-66
2023/02/04 08:13:47;;;;;;;4.00;2.70;;;2.80;99.90;;;;;;5073398;28;20415;-65
2023/02/04 08:16:13;;;;;;;4.30;2.50;;;2.90;99.90;;;;;;5073201;28;20860;-65
2023/02/04 08:18:40;;;;;;;4.82;2.95;;;3.00;99.90;;;;;;5073321;28;20412;-66
2023/02/04 08:21:07;;;;;;;3.80;2.90;;;3.20;99.90;;;;;;5073326;28;20428;-66
2023/02/04 08:23:34;;;;;;;4.57;2.73;;;3.30;99.90;;;;;;5071337;28;20946;-66
2023/02/04 08:26:01;;;;;;;5.50;2.80;;;3.30;99.90;;;;;;5072763;28;20411;-66
2023/02/04 08:28:29;;;;;;;3.63;2.90;;;3.30;99.90;;;;;;5071832;28;20435;-65
2023/02/04 08:30:56;;;;;;;4.00;2.95;;;3.40;99.90;;;;;;5072672;28;20799;-65
2023/02/04 08:33:23;;;;;;;3.53;2.60;;;3.40;99.90;;;;;;5072640;28;20435;-66
2023/02/04 08:35:50;;;;;;;5.10;3.30;;;3.50;99.90;;;;;;5073832;28;20418;-66
2023/02/04 08:38:17;;;;;;;4.07;2.90;;;3.40;99.90;;;;;;5073423;28;20477;-66
2023/02/04 08:40:44;;;;;;;5.88;3.80;;;3.40;99.90;;;;;;5073009;28;20419;-65
2023/02/04 08:43:11;;;;;;;3.50;3.10;;;3.40;99.90;;;;;;5073610;28;20498;-65
2023/02/04 08:45:39;;;;;;;4.30;3.43;;;3.40;99.90;;;;;;5073428;28;20423;-65
2023/02/04 08:48:08;;;;;;;6.38;3.72;;;3.40;99.90;;;;;;5073271;28;20407;-66
2023/02/04 08:50:35;;;;;;;5.80;4.50;;;3.40;99.90;;;;;;5073147;28;20459;-68
2023/02/04 08:53:02;;;;;;;4.68;2.92;;;3.40;99.90;;;;;;5073215;28;20407;-66
2023/02/04 08:55:28;;;;;;;6.82;3.08;;;3.40;99.90;;;;;;5072975;28;20424;-67
2023/02/04 08:57:57;;;;;;;4.10;3.05;;;3.40;99.90;;;;;;5076522;28;20415;-66
2023/02/04 09:00:24;;;;;;;3.22;2.42;;;3.50;99.90;;;;;;5075556;28;20900;-68
2023/02/04 09:02:53;;;;;;;3.50;2.60;;;3.60;99.90;;;;;;5076270;28;20407;-68
2023/02/04 09:05:20;;;;;;;2.70;2.50;;;3.60;99.90;;;;;;5075635;28;20442;-67
2023/02/04 09:07:47;;;;;;;4.18;2.95;;;3.70;99.90;;;;;;5075956;28;20758;-67
2023/02/04 09:10:14;;;;;;;4.30;2.60;;;3.70;99.90;;;;;;5074782;28;20884;-67
2023/02/04 09:12:41;;;;;;;3.53;2.60;;;3.70;99.90;;;;;;5075636;28;20422;-68
2023/02/04 09:15:10;;;;;;;2.60;2.40;;;3.70;99.90;;;;;;5075694;28;20736;-67
2023/02/04 09:17:37;;;;;;;5.25;2.90;;;3.80;99.90;;;;;;5075514;28;20411;-68
2023/02/04 09:20:06;;;;;;;3.35;2.10;;;3.90;99.90;;;;;;5075158;28;20884;-67
2023/02/04 09:22:35;;;;;;;5.05;3.33;;;4.00;99.90;;;;;;5075207;28;20772;-69
2023/02/04 09:25:02;;;;;;;3.08;2.30;;;4.00;99.90;;;;;;5075103;28;20423;-69
2023/02/04 09:27:29;;;;;;;3.35;2.40;;;4.10;99.90;;;;;;5074935;28;20419;-67
2023/02/04 09:29:55;;;;;;;3.30;2.50;;;4.20;99.90;;;;;;5071293;28;20419;-67
2023/02/04 09:32:22;;;;;;;2.90;2.05;;;4.30;99.90;;;;;;5055575;28;20433;-66
2023/02/04 09:34:49;;;;;;;2.40;2.00;;;4.40;99.90;;;;;;5058686;28;20930;-66
2023/02/04 09:37:17;;;;;;;4.60;2.30;;;4.50;99.90;;;;;;5067359;28;20429;-68
2023/02/04 09:39:44;;;;;;;2.50;1.70;;;4.40;99.90;;;;;;5055184;28;20452;-68
2023/02/04 09:42:13;;;;;;;3.03;2.30;;;4.40;99.90;;;;;;5073881;28;20937;-66
2023/02/04 09:44:40;;;;;;;2.57;1.90;;;4.50;99.90;;;;;;5075221;28;20779;-67
2023/02/04 09:47:10;;;;;;;3.05;2.08;;;4.60;99.90;;;;;;5074747;28;20879;-66
2023/02/04 09:49:37;;;;;;;2.92;1.83;;;4.70;99.90;;;;;;5074953;28;20412;-66
2023/02/04 09:52:04;;;;;;;4.25;2.13;;;4.80;99.90;;;;;;5074958;28;20436;-67
2023/02/04 09:54:33;;;;;;;2.53;1.80;;;4.90;99.90;;;;;;5075061;28;20414;-67
2023/02/04 09:57:00;;;;;;;2.40;1.70;;;4.90;99.90;;;;;;5075006;28;20948;-67
2023/02/04 09:59:28;;;;;;;2.78;1.60;;;5.00;99.90;;;;;;5076095;28;20786;-68
2023/02/04 10:01:59;;;;;;;4.35;1.60;;;5.00;99.80;;;;;;5074702;28;20907;-65
2023/02/04 10:04:26;;;;;;;2.70;2.03;;;4.90;99.70;;;;;;5074967;28;20903;-66
2023/02/04 10:06:53;;;;;;;2.38;1.88;;;4.80;99.60;;;;;;5075063;28;20443;-68
2023/02/04 10:09:20;;;;;;;3.45;1.70;;;4.80;99.90;;;;;;5074730;28;20416;-70
2023/02/04 10:11:48;;;;;;;2.53;1.83;;;5.00;99.70;;;;;;5074013;28;20439;-69
2023/02/04 10:14:19;;;;;;;2.65;1.42;;;5.10;99.30;;;;;;5075701;28;20453;-68
2023/02/04 10:16:52;;;;;;;3.23;1.90;;;5.20;98.50;;;;;;5074668;28;20473;-68
2023/02/04 10:19:19;;;;;;;3.10;2.40;;;5.30;97.70;;;;;;5076617;28;20802;-67
2023/02/04 10:21:47;;;;;;;3.90;1.80;;;5.30;97.90;;;;;;5076719;28;20959;-68
2023/02/04 10:24:17;;;;;;;2.05;1.55;;;5.40;98.20;;;;;;5076318;28;20953;-69
2023/02/04 10:26:44;;;;;;;3.38;2.00;;;5.40;97.70;;;;;;5079739;22;20771;-66
2023/02/04 10:29:16;;;;;;;2.65;1.63;;;5.40;97.60;;;;;;5058427;28;20424;-65
2023/02/04 10:31:45;;;;;;;4.13;2.25;;;5.40;98.20;;;;;;5056396;28;20793;-66
2023/02/04 10:34:14;;;;;;;2.20;2.00;;;5.40;97.50;;;;;;5055371;28;20414;-65
2023/02/04 10:36:43;;;;;;;2.85;1.80;;;5.50;97.40;;;;;;5070332;28;20415;-66
2023/02/04 10:39:15;;;;;;;2.25;1.90;;;5.50;97.20;;;;;;5075650;28;20411;-67
2023/02/04 10:41:50;;;;;;;2.00;1.48;;;5.60;96.40;;;;;;5075694;28;20507;-67
2023/02/04 10:44:22;;;;;;;4.10;2.40;;;5.60;95.70;;;;;;5075244;28;20448;-66
2023/02/04 10:46:49;;;;;;;2.70;1.70;;;5.70;95.60;;;;;;5074747;28;20929;-66
2023/02/04 10:49:21;;;;;;;3.33;2.00;;;5.90;96.20;;;;;;5074830;28;20416;-66
2023/02/04 10:51:49;;;;;;;2.63;1.70;;;6.00;95.90;;;;;;5074112;28;20769;-66
2023/02/04 10:54:33;;;;;;;2.88;1.70;;;5.90;94.80;;;;;;5074731;28;20871;-65
2023/02/04 10:57:08;;;;;;;3.25;2.22;;;5.80;94.10;;;;;;5075097;28;20930;-66
2023/02/04 10:59:36;;;;;;;2.90;2.20;;;5.80;94.50;;;;;;5074460;28;20412;-66
2023/02/04 11:02:32;;;;;;;6.22;3.30;;;5.80;95.20;;;;;;5075168;28;20420;-66
2023/02/04 11:04:59;;;;;;;3.85;1.92;;;5.90;95.80;;;;;;5068962;28;20422;-66
2023/02/04 11:07:26;;;;;;;2.70;2.20;;;6.00;95.00;;;;;;5077026;28;20891;-66
2023/02/04 11:09:53;;;;;;;2.78;2.10;;;6.10;94.70;;;;;;5076921;28;21014;-66
2023/02/04 11:12:21;;;;;;;3.00;1.95;;;6.10;94.60;;;;;;5076537;28;20802;-67
2023/02/04 11:14:57;;;;;;;4.20;2.60;;;6.20;94.40;;;;;;5076359;28;20607;-66
2023/02/04 11:17:30;;;;;;;2.95;2.30;;;6.20;94.50;;;;;;5077754;28;20412;-66
2023/02/04 11:19:58;;;;;;;4.78;2.50;;;6.30;94.40;;;;;;5077720;28;20428;-66
2023/02/04 11:22:40;;;;;;;3.83;2.20;;;6.30;94.60;;;;;;5077386;28;20469;-65
2023/02/04 11:25:31;;;;;;;3.30;2.20;;;6.30;95.00;;;;;;5076156;28;20415;-66
2023/02/04 11:27:58;;;;;;;3.30;2.30;;;6.50;94.80;;;;;;5076273;28;20966;-67
2023/02/04 11:30:32;;;;;;;2.67;1.80;;;6.60;94.40;;;;;;5075221;28;20415;-66
2023/02/04 11:33:03;;;;;;;2.78;2.35;;;6.70;93.40;;;;;;5076382;28;20454;-66
2023/02/04 11:35:30;;;;;;;4.53;2.20;;;6.70;92.80;;;;;;5075912;28;20411;-66
2023/02/04 11:37:58;;;;;;;3.70;1.65;;;6.70;92.20;;;;;;5079373;28;20416;-67
2023/02/04 11:40:28;;;;;;;4.40;2.20;;;6.80;91.70;;;;;;5079490;28;20479;-66
2023/02/04 11:43:04;;;;;;;4.28;1.90;;;6.90;91.50;;;;;;5076744;28;20453;-65
2023/02/04 11:45:34;;;;;;;2.00;1.70;;;7.00;91.30;;;;;;5078056;28;20435;-66
2023/02/04 11:48:04;;;;;;;4.15;2.17;;;7.10;90.20;;;;;;5078238;28;20422;-65
2023/02/04 11:50:33;;;;;;;2.30;1.42;;;7.10;88.50;;;;;;5075102;28;20446;-66
2023/02/04 11:53:01;;;;;;;2.40;1.50;;;7.10;86.20;;;;;;5076094;28;20838;-66
2023/02/04 11:55:29;;;;;;;5.35;2.20;;;6.90;85.30;;;;;;5075164;28;20408;-66
2023/02/04 11:57:57;;;;;;;4.30;2.38;;;6.80;88.50;;;;;;5077468;28;20423;-65
2023/02/04 12:00:26;;;;;;;4.87;2.80;;;6.70;89.50;;;;;;5080342;28;20489;-65
2023/02/04 12:02:58;;;;;;;3.45;2.40;;;6.70;90.50;;;;;;5086504;28;20486;-66
2023/02/04 12:05:36;;;;;;;2.40;1.80;;;6.70;90.30;;;;;;5083618;28;20782;-66
2023/02/04 12:08:11;;;;;;;3.78;2.20;;;6.70;90.50;;;;;;5079794;28;20418;-67
2023/02/04 12:10:38;;;;;;;4.20;2.50;;;6.60;90.50;;;;;;5083788;28;20423;-66
2023/02/04 12:13:16;;;;;;;5.32;2.20;;;6.70;91.00;;;;;;5085103;28;20441;-67
2023/02/04 12:15:51;;;;;;;3.05;1.60;;;6.70;91.10;;;;;;5081769;28;20791;-67
2023/02/04 12:18:20;;;;;;;2.43;1.83;;;6.80;90.30;;;;;;5082009;28;20617;-67
2023/02/04 12:20:46;;;;;;;3.42;2.00;;;6.80;88.80;;;;;;5081020;28;20411;-67
2023/02/04 12:23:13;;;;;;;2.88;2.30;;;6.80;87.70;;;;;;5083383;28;20410;-66
2023/02/04 12:25:40;;;;;;;3.90;2.30;;;6.60;87.10;;;;;;5082336;28;20499;-66
2023/02/04 12:28:07;;;;;;;3.88;2.55;;;6.40;87.50;;;;;;5074290;28;20422;-66
2023/02/04 12:30:34;;;;;;;3.17;1.90;;;6.30;88.00;;;;;;5074811;28;20412;-66
2023/02/04 12:33:01;;;;;;;3.97;2.10;;;6.30;89.70;;;;;;5079383;28;20986;-66
2023/02/04 12:35:29;;;;;;;4.82;2.40;;;6.20;90.50;;;;;;5078967;28;20879;-66
2023/02/04 12:37:56;;;;;;;3.10;2.10;;;6.20;91.10;;;;;;5079171;28;20424;-66
2023/02/04 12:40:23;;;;;;;2.15;1.67;;;6.30;91.30;;;;;;5079172;28;20415;-67
2023/02/04 12:42:50;;;;;;;4.10;2.00;;;6.30;90.20;;;;;;5080012;28;20412;-66
2023/02/04 12:45:17;;;;;;;3.00;2.00;;;6.30;90.00;;;;;;5082474;28;20415;-65
2023/02/04 12:47:44;;;;;;;4.28;2.35;;;6.30;90.50;;;;;;5082787;28;20415;-66
2023/02/04 12:50:12;;;;;;;2.80;1.80;;;6.30;90.30;;;;;;5081606;28;20784;-66
2023/02/04 12:52:41;;;;;;;2.88;1.90;;;6.40;90.00;;;;;;5082140;28;20490;-66
2023/02/04 12:55:09;;;;;;;3.30;2.00;;;6.30;89.10;;;;;;5081494;28;20430;-67
2023/02/04 12:57:35;;;;;;;3.25;1.92;;;6.30;88.30;;;;;;5082571;28;20769;-67
2023/02/04 13:00:03;;;;;;;2.90;2.10;;;6.20;87.40;;;;;;5080269;28;20415;-66